Meteorología y climatología de Navarra
Datos de la estación - Meteo Navarra

Estación de Goizueta GN

Altitud 142 m.


Datos desde el 16/09/2020 hasta el 17/09/2020 en horario solar
Los datos son PROVISIONALES

Anterior Página 1 de 1 Siguiente Descargar: Formato para Excel 2000 o superior   Formato csv   Formato para OpenOffice Calc
Fecha Temperatura Humedad relativa Radiación global Insolación Precipitación Vel. viento 10 m Vel. viento 10 m Dir. viento 10 m
ºC % W/m² s l/m² m/s km/h º
16/09/2020 0:00 15.5 97 - - - - 0.0 - - - - - -
16/09/2020 0:10 15.4 97 - - - - 0.0 - - - - - -
16/09/2020 0:20 15.4 98 - - - - 0.0 - - - - - -
16/09/2020 0:30 15.2 97 - - - - 0.0 - - - - - -
16/09/2020 0:40 15.1 97 - - - - 0.0 - - - - - -
16/09/2020 0:50 15.0 98 - - - - 0.0 - - - - - -
16/09/2020 1:00 14.9 98 - - - - 0.0 - - - - - -
16/09/2020 1:10 14.8 98 - - - - 0.0 - - - - - -
16/09/2020 1:20 14.8 98 - - - - 0.0 - - - - - -
16/09/2020 1:30 14.6 98 - - - - 0.0 - - - - - -
16/09/2020 1:40 14.6 98 - - - - 0.0 - - - - - -
16/09/2020 1:50 14.5 98 - - - - 0.0 - - - - - -
16/09/2020 2:00 14.4 98 - - - - 0.0 - - - - - -
16/09/2020 2:10 14.4 98 - - - - 0.0 - - - - - -
16/09/2020 2:20 14.4 98 - - - - 0.0 - - - - - -
16/09/2020 2:30 14.3 98 - - - - 0.0 - - - - - -
16/09/2020 2:40 14.2 98 - - - - 0.0 - - - - - -
16/09/2020 2:50 14.1 98 - - - - 0.0 - - - - - -
16/09/2020 3:00 14.1 98 - - - - 0.0 - - - - - -
16/09/2020 3:10 14.0 98 - - - - 0.0 - - - - - -
16/09/2020 3:20 13.9 98 - - - - 0.0 - - - - - -
16/09/2020 3:30 13.9 98 - - - - 0.0 - - - - - -
16/09/2020 3:40 13.8 98 - - - - 0.0 - - - - - -
16/09/2020 3:50 13.8 98 - - - - 0.0 - - - - - -
16/09/2020 4:00 13.8 98 - - - - 0.0 - - - - - -
16/09/2020 4:10 13.8 98 - - - - 0.0 - - - - - -
16/09/2020 4:20 13.8 98 - - - - 0.0 - - - - - -
16/09/2020 4:30 13.7 98 - - - - 0.0 - - - - - -
16/09/2020 4:40 13.8 98 - - - - 0.0 - - - - - -
16/09/2020 4:50 13.9 98 - - - - 0.0 - - - - - -
16/09/2020 5:00 14.0 98 - - - - 0.0 - - - - - -
16/09/2020 5:10 14.0 98 - - - - 0.0 - - - - - -
16/09/2020 5:20 14.0 98 - - - - 0.0 - - - - - -
16/09/2020 5:30 14.0 98 - - - - 0.0 - - - - - -
16/09/2020 5:40 14.0 98 - - - - 0.0 - - - - - -
16/09/2020 5:50 13.9 98 - - - - 0.0 - - - - - -
16/09/2020 6:00 13.8 98 - - - - 0.0 - - - - - -
16/09/2020 6:10 13.8 98 - - - - 0.0 - - - - - -
16/09/2020 6:20 13.9 98 - - - - 0.0 - - - - - -
16/09/2020 6:30 14.1 98 - - - - 0.0 - - - - - -
16/09/2020 6:40 14.2 98 - - - - 0.0 - - - - - -
16/09/2020 6:50 14.5 98 - - - - 0.0 - - - - - -
16/09/2020 7:00 14.8 98 - - - - 0.0 - - - - - -
16/09/2020 7:10 15.0 97 - - - - 0.0 - - - - - -
16/09/2020 7:20 15.2 96 - - - - 0.0 - - - - - -
16/09/2020 7:30 15.5 95 - - - - 0.0 - - - - - -
16/09/2020 7:40 16.0 95 - - - - 0.0 - - - - - -
16/09/2020 7:50 16.7 94 - - - - 0.0 - - - - - -
16/09/2020 8:00 17.2 91 - - - - 0.0 - - - - - -
16/09/2020 8:10 18.1 89 - - - - 0.0 - - - - - -
16/09/2020 8:20 18.9 86 - - - - 0.0 - - - - - -
16/09/2020 8:30 19.5 83 - - - - 0.0 - - - - - -
16/09/2020 8:40 20.8 79 - - - - 0.0 - - - - - -
16/09/2020 8:50 21.9 73 - - - - 0.0 - - - - - -
16/09/2020 9:00 22.1 72 - - - - 0.0 - - - - - -
16/09/2020 9:10 22.5 72 - - - - 0.0 - - - - - -
16/09/2020 9:20 22.5 72 - - - - 0.0 - - - - - -
16/09/2020 9:30 23.1 71 - - - - 0.0 - - - - - -
16/09/2020 9:40 23.4 68 - - - - 0.0 - - - - - -
16/09/2020 9:50 23.8 66 - - - - 0.0 - - - - - -
16/09/2020 10:00 24.4 64 - - - - 0.0 - - - - - -
16/09/2020 10:10 25.1 60 - - - - 0.0 - - - - - -
16/09/2020 10:20 25.6 61 - - - - 0.0 - - - - - -
16/09/2020 10:30 26.1 59 - - - - 0.0 - - - - - -
16/09/2020 10:40 26.5 58 - - - - 0.0 - - - - - -
16/09/2020 10:50 27.1 56 - - - - 0.0 - - - - - -
16/09/2020 11:00 27.5 56 - - - - 0.0 - - - - - -
16/09/2020 11:10 27.7 56 - - - - 0.0 - - - - - -
16/09/2020 11:20 27.9 56 - - - - 0.0 - - - - - -
16/09/2020 11:30 28.0 56 - - - - 0.0 - - - - - -
16/09/2020 11:40 28.2 56 - - - - 0.0 - - - - - -
16/09/2020 11:50 28.2 57 - - - - 0.0 - - - - - -
16/09/2020 12:00 28.3 58 - - - - 0.0 - - - - - -
16/09/2020 12:10 28.3 57 - - - - 0.0 - - - - - -
16/09/2020 12:20 28.4 56 - - - - 0.0 - - - - - -
16/09/2020 12:30 28.7 56 - - - - 0.0 - - - - - -
16/09/2020 12:40 29.0 55 - - - - 0.0 - - - - - -
16/09/2020 12:50 28.8 55 - - - - 0.0 - - - - - -
16/09/2020 13:00 29.2 56 - - - - 0.0 - - - - - -
16/09/2020 13:10 29.5 56 - - - - 0.0 - - - - - -
16/09/2020 13:20 29.4 56 - - - - 0.0 - - - - - -
16/09/2020 13:30 29.5 56 - - - - 0.0 - - - - - -
16/09/2020 13:40 29.9 56 - - - - 0.0 - - - - - -
16/09/2020 13:50 30.0 56 - - - - 0.0 - - - - - -
16/09/2020 14:00 29.8 57 - - - - 0.0 - - - - - -
16/09/2020 14:10 29.7 57 - - - - 0.0 - - - - - -
16/09/2020 14:20 30.0 58 - - - - 0.0 - - - - - -
16/09/2020 14:30 29.9 58 - - - - 0.0 - - - - - -
16/09/2020 14:40 29.9 57 - - - - 0.0 - - - - - -
16/09/2020 14:50 29.9 57 - - - - 0.0 - - - - - -
16/09/2020 15:00 30.1 56 - - - - 0.0 - - - - - -
16/09/2020 15:10 29.9 55 - - - - 0.0 - - - - - -
16/09/2020 15:20 29.7 56 - - - - 0.0 - - - - - -
16/09/2020 15:30 29.5 56 - - - - 0.0 - - - - - -
16/09/2020 15:40 28.8 60 - - - - 0.0 - - - - - -
16/09/2020 15:50 28.1 64 - - - - 0.0 - - - - - -
16/09/2020 16:00 27.9 67 - - - - 0.0 - - - - - -
16/09/2020 16:10 27.8 66 - - - - 0.0 - - - - - -
16/09/2020 16:20 27.8 66 - - - - 0.0 - - - - - -
16/09/2020 16:30 27.3 67 - - - - 0.0 - - - - - -
16/09/2020 16:40 26.8 71 - - - - 0.0 - - - - - -
16/09/2020 16:50 26.2 74 - - - - 0.0 - - - - - -
16/09/2020 17:00 25.8 76 - - - - 0.0 - - - - - -
16/09/2020 17:10 25.5 76 - - - - 0.0 - - - - - -
16/09/2020 17:20 25.4 76 - - - - 0.0 - - - - - -
16/09/2020 17:30 25.0 78 - - - - 0.0 - - - - - -
16/09/2020 17:40 24.7 80 - - - - 0.0 - - - - - -
16/09/2020 17:50 24.3 82 - - - - 0.0 - - - - - -
16/09/2020 18:00 23.6 85 - - - - 0.0 - - - - - -
16/09/2020 18:10 23.0 87 - - - - 0.0 - - - - - -
16/09/2020 18:20 22.5 88 - - - - 0.0 - - - - - -
16/09/2020 18:30 21.9 90 - - - - 0.0 - - - - - -
16/09/2020 18:40 21.4 91 - - - - 0.0 - - - - - -
16/09/2020 18:50 21.0 92 - - - - 0.0 - - - - - -
16/09/2020 19:00 20.8 93 - - - - 0.0 - - - - - -
16/09/2020 19:10 20.4 93 - - - - 0.0 - - - - - -
16/09/2020 19:20 20.2 94 - - - - 0.0 - - - - - -
16/09/2020 19:30 20.1 95 - - - - 0.0 - - - - - -
16/09/2020 19:40 19.9 95 - - - - 0.0 - - - - - -
16/09/2020 19:50 19.9 95 - - - - 0.0 - - - - - -
16/09/2020 20:00 19.7 96 - - - - 0.0 - - - - - -
16/09/2020 20:10 19.6 96 - - - - 0.0 - - - - - -
16/09/2020 20:20 19.4 96 - - - - 0.0 - - - - - -
16/09/2020 20:30 19.3 96 - - - - 0.0 - - - - - -
16/09/2020 20:40 19.1 96 - - - - 0.0 - - - - - -
16/09/2020 20:50 18.8 96 - - - - 0.0 - - - - - -
16/09/2020 21:00 18.6 97 - - - - 0.0 - - - - - -
16/09/2020 21:10 18.6 97 - - - - 0.0 - - - - - -
16/09/2020 21:20 18.5 97 - - - - 0.0 - - - - - -
16/09/2020 21:30 18.3 97 - - - - 0.0 - - - - - -
16/09/2020 21:40 18.3 97 - - - - 0.0 - - - - - -
16/09/2020 21:50 18.2 97 - - - - 0.0 - - - - - -
16/09/2020 22:00 18.0 97 - - - - 0.0 - - - - - -
16/09/2020 22:10 17.9 97 - - - - 0.0 - - - - - -
16/09/2020 22:20 17.8 97 - - - - 0.0 - - - - - -
16/09/2020 22:30 17.6 97 - - - - 0.0 - - - - - -
16/09/2020 22:40 17.5 97 - - - - 0.0 - - - - - -
16/09/2020 22:50 17.3 97 - - - - 0.0 - - - - - -
16/09/2020 23:00 17.3 98 - - - - 0.0 - - - - - -
16/09/2020 23:10 17.2 98 - - - - 0.0 - - - - - -
16/09/2020 23:20 17.0 98 - - - - 0.0 - - - - - -
16/09/2020 23:30 16.8 98 - - - - 0.0 - - - - - -
16/09/2020 23:40 16.6 98 - - - - 0.0 - - - - - -
16/09/2020 23:50 16.6 98 - - - - 0.0 - - - - - -
Anterior Página 1 de 1 Siguiente

NOTA: Tipo de datos según el color:
   - Valores diarios o 10 minutos correctos
   - Valores diarios calculados a partir de un número de datos 10 minutos menor que 144 y mayor que 120, o de un número de datos semihorarios menor que 48 y mayor que 40 (caso de las estaciones de INTIA y del Ministerio)
   - Valores diez minutos estimados


Contacto        Enlaces        Aviso legal